Terminal Aerodrome Forecast
Issued by NWS

Home | Current Version | Previous Version | Text Only | Print | Product List | Glossary On
Versions: 1 2 3 4 5 6 7 8 9 10 11 12 13
831
FTUS44 KLZK 251730
TAFHRO
TAF
KHRO 251730Z 2518/2618 36004KT P6SM SCT025 BKN120
     FM252030 VRB03KT P6SM VCTS BKN035CB
     FM260100 08004KT P6SM VCSH SCT050 OVC250
     FM260330 12003KT P6SM BKN250
     FM261300 00000KT P6SM BKN250=

USA.gov is the U.S. government's official web portal to all federal, state and local government web resources and services.